Time;durP1;ratioP1;P1;durP2;ratioP2;P2;SDS_P1;SDS_P2;PMS_P1;PMS_P2;Temp;Humidity;BMP_temperature;BMP_pressure;BME280_temperature;BME280_humidity;BME280_pressure;Samples;Min_cycle;Max_cycle;Signal;HPM_P1;HPM_P2
2021/06/14 00:00:12;;;;;;;4.43;4.03;;;17.80;99.90;;;;;;4974976;28;20993;-56
2021/06/14 00:02:40;;;;;;;5.90;3.80;;;17.80;99.90;;;;;;4989567;28;20490;-56
2021/06/14 00:05:13;;;;;;;5.10;4.60;;;17.80;99.90;;;;;;4993958;28;20456;-55
2021/06/14 00:07:40;;;;;;;4.73;4.23;;;17.80;99.90;;;;;;4994260;28;20462;-56
2021/06/14 00:10:09;;;;;;;9.37;4.40;;;17.70;99.90;;;;;;4994460;28;20517;-55
2021/06/14 00:12:36;;;;;;;5.50;5.00;;;17.60;99.90;;;;;;4994157;28;20513;-56
2021/06/14 00:15:07;;;;;;;6.43;4.43;;;17.60;99.90;;;;;;4981755;28;20458;-55
2021/06/14 00:17:34;;;;;;;4.70;4.30;;;17.60;99.90;;;;;;4994176;28;20886;-56
2021/06/14 00:20:02;;;;;;;5.23;4.47;;;17.50;99.90;;;;;;4993531;28;20481;-56
2021/06/14 00:22:31;;;;;;;4.90;4.50;;;17.50;99.90;;;;;;4993839;28;20795;-56
2021/06/14 00:24:58;;;;;;;4.87;4.47;;;17.50;99.90;;;;;;4993749;28;20455;-55
2021/06/14 00:27:25;;;;;;;7.17;5.83;;;17.40;99.90;;;;;;4975392;28;21039;-56
2021/06/14 00:29:52;;;;;;;5.83;4.40;;;17.40;99.90;;;;;;4974820;28;20475;-56
2021/06/14 00:32:19;;;;;;;5.37;4.87;;;17.40;99.90;;;;;;4983181;28;20512;-55
2021/06/14 00:34:46;;;;;;;5.90;5.00;;;17.40;99.90;;;;;;4993838;28;20864;-55
2021/06/14 00:37:13;;;;;;;5.40;4.80;;;17.40;99.90;;;;;;4974638;28;20460;-55
2021/06/14 00:39:41;;;;;;;6.50;5.23;;;17.30;99.90;;;;;;4973605;28;20530;-55
2021/06/14 00:42:09;;;;;;;5.47;4.97;;;17.30;99.90;;;;;;4991903;28;20482;-55
2021/06/14 00:44:36;;;;;;;6.20;4.37;;;17.30;99.90;;;;;;4993933;28;20455;-55
2021/06/14 00:47:03;;;;;;;4.30;4.00;;;17.20;99.90;;;;;;4993233;28;20459;-55
2021/06/14 00:49:31;;;;;;;6.00;4.37;;;17.20;99.90;;;;;;4993585;28;20470;-55
2021/06/14 00:51:58;;;;;;;5.83;5.00;;;17.20;99.90;;;;;;4993008;28;20447;-55
2021/06/14 00:54:25;;;;;;;5.10;4.60;;;17.20;99.90;;;;;;4993276;28;20956;-55
2021/06/14 00:56:53;;;;;;;4.53;4.13;;;17.20;99.90;;;;;;4993799;28;20455;-55
2021/06/14 00:59:21;;;;;;;5.90;4.77;;;17.10;99.90;;;;;;4993103;28;20984;-55
2021/06/14 01:01:48;;;;;;;4.33;3.93;;;17.10;99.90;;;;;;4992932;28;20890;-55
2021/06/14 01:04:15;;;;;;;5.80;4.40;;;17.10;99.90;;;;;;4986250;28;20505;-55
2021/06/14 01:06:44;;;;;;;5.10;4.03;;;17.00;99.90;;;;;;4984796;28;20952;-55
2021/06/14 01:09:11;;;;;;;4.63;4.23;;;17.00;99.90;;;;;;4993587;28;20884;-56
2021/06/14 01:11:46;;;;;;;4.20;3.83;;;17.00;99.90;;;;;;4993089;28;20517;-55
2021/06/14 01:14:19;;;;;;;5.20;4.20;;;16.90;99.90;;;;;;4992614;28;20469;-55
2021/06/14 01:16:53;;;;;;;5.40;4.30;;;16.90;99.90;;;;;;4978583;28;20487;-55
2021/06/14 01:20:00;;;;;;;7.67;4.30;;;17.00;99.90;;;;;;4992034;28;20470;-56
2021/06/14 01:22:56;;;;;;;5.23;4.33;;;17.00;99.90;;;;;;4990380;28;20482;-55
2021/06/14 01:25:26;;;;;;;5.37;4.17;;;16.90;99.90;;;;;;4993129;28;20446;-56
2021/06/14 01:27:57;;;;;;;4.70;4.30;;;16.80;99.90;;;;;;4992849;28;20978;-55
2021/06/14 01:30:28;;;;;;;6.00;4.70;;;16.80;99.90;;;;;;4992878;28;20996;-55
2021/06/14 01:32:55;;;;;;;5.20;4.23;;;16.70;99.90;;;;;;4992648;28;20525;-55
2021/06/14 01:35:27;;;;;;;5.93;4.90;;;16.70;99.90;;;;;;4993091;28;20915;-54
2021/06/14 01:37:57;;;;;;;5.03;4.53;;;16.70;99.90;;;;;;4992249;28;20463;-55
2021/06/14 01:40:24;;;;;;;5.80;4.60;;;16.70;99.90;;;;;;4993031;28;20471;-55
2021/06/14 01:42:57;;;;;;;5.30;4.80;;;16.60;99.90;;;;;;4991845;28;20478;-55
2021/06/14 01:45:26;;;;;;;5.20;4.70;;;16.60;99.90;;;;;;4992627;28;20505;-55
2021/06/14 01:47:54;;;;;;;4.60;4.00;;;16.50;99.90;;;;;;4992862;28;20466;-55
2021/06/14 01:50:22;;;;;;;6.20;4.23;;;16.50;99.90;;;;;;4992622;28;20473;-55
2021/06/14 01:52:49;;;;;;;8.53;5.50;;;16.50;99.90;;;;;;4992187;28;20450;-55
2021/06/14 01:55:18;;;;;;;5.20;4.53;;;16.50;99.90;;;;;;4992654;28;20455;-55
2021/06/14 01:57:46;;;;;;;7.17;5.07;;;16.40;99.90;;;;;;4992816;28;20508;-55
2021/06/14 02:00:16;;;;;;;5.57;4.90;;;16.40;99.90;;;;;;5015799;22;20494;-49
2021/06/14 02:02:45;;;;;;;4.73;4.07;;;16.40;99.90;;;;;;4991307;28;21062;-49
2021/06/14 02:05:14;;;;;;;5.70;4.57;;;16.30;99.90;;;;;;4992258;28;20446;-49
2021/06/14 02:07:42;;;;;;;6.03;4.47;;;16.40;99.90;;;;;;4992071;28;20454;-49
2021/06/14 02:10:11;;;;;;;6.63;4.90;;;16.30;99.90;;;;;;4991360;28;20470;-49
2021/06/14 02:12:41;;;;;;;5.67;5.07;;;16.30;99.90;;;;;;4991507;28;20450;-48
2021/06/14 02:15:10;;;;;;;6.00;4.80;;;16.30;99.90;;;;;;4991405;28;20454;-49
2021/06/14 02:17:41;;;;;;;5.20;4.47;;;16.20;99.90;;;;;;4991377;28;20481;-49
2021/06/14 02:20:11;;;;;;;6.40;5.40;;;16.20;99.90;;;;;;4992320;28;20474;-49
2021/06/14 02:22:39;;;;;;;6.73;5.53;;;16.10;99.90;;;;;;4991601;28;20498;-49
2021/06/14 02:25:09;;;;;;;6.07;5.40;;;16.10;99.90;;;;;;4972624;28;21011;-49
2021/06/14 02:27:36;;;;;;;8.77;5.40;;;16.10;99.90;;;;;;4972562;28;20455;-48
2021/06/14 02:30:05;;;;;;;5.40;4.83;;;16.10;99.90;;;;;;4972543;28;20897;-48
2021/06/14 02:32:33;;;;;;;6.77;5.30;;;16.20;99.90;;;;;;4991661;28;20458;-48
2021/06/14 02:35:01;;;;;;;5.93;4.33;;;16.20;99.90;;;;;;4990907;28;20446;-49
2021/06/14 02:37:28;;;;;;;6.70;4.73;;;16.20;99.90;;;;;;4980517;28;20463;-48
2021/06/14 02:39:57;;;;;;;6.63;4.70;;;16.10;99.90;;;;;;4972609;28;20894;-49
2021/06/14 02:42:25;;;;;;;8.00;5.37;;;16.00;99.90;;;;;;4981329;28;20545;-49
2021/06/14 02:44:52;;;;;;;5.60;5.10;;;15.90;99.90;;;;;;4991625;28;20450;-48
2021/06/14 02:47:19;;;;;;;6.33;5.70;;;15.80;99.90;;;;;;4992139;28;20450;-49
2021/06/14 02:49:47;;;;;;;6.43;5.27;;;15.60;99.90;;;;;;4988185;28;20479;-49
2021/06/14 02:52:17;;;;;;;6.67;4.73;;;15.70;99.90;;;;;;4972356;28;20447;-49
2021/06/14 02:54:49;;;;;;;5.43;4.80;;;15.80;99.90;;;;;;4988354;28;20454;-48
2021/06/14 02:57:18;;;;;;;6.37;5.70;;;15.80;99.90;;;;;;4991767;28;20509;-48
2021/06/14 02:59:47;;;;;;;5.83;5.33;;;15.80;99.90;;;;;;4988531;28;20512;-49
2021/06/14 03:02:15;;;;;;;6.97;5.53;;;15.80;99.90;;;;;;4974162;28;20490;-49
2021/06/14 03:04:42;;;;;;;6.60;5.73;;;15.80;99.90;;;;;;4989064;28;20454;-49
2021/06/14 03:07:09;;;;;;;5.50;5.00;;;15.80;99.90;;;;;;4978518;28;20529;-49
2021/06/14 03:09:38;;;;;;;6.83;5.60;;;15.70;99.90;;;;;;4976245;28;20463;-49
2021/06/14 03:12:06;;;;;;;8.23;5.40;;;15.70;99.90;;;;;;4978501;28;20448;-49
2021/06/14 03:14:36;;;;;;;6.97;6.03;;;15.60;99.90;;;;;;4994066;28;20501;-48
2021/06/14 03:17:06;;;;;;;5.90;4.80;;;15.70;99.90;;;;;;4992626;28;20538;-49
2021/06/14 03:19:34;;;;;;;7.90;5.40;;;15.60;99.90;;;;;;4976566;28;20470;-48
2021/06/14 03:22:04;;;;;;;8.50;5.70;;;15.60;99.90;;;;;;4975530;28;20447;-49
2021/06/14 03:24:31;;;;;;;6.30;5.17;;;15.60;99.90;;;;;;4988432;28;20455;-48
2021/06/14 03:27:00;;;;;;;7.20;5.47;;;15.60;99.90;;;;;;4992316;28;20497;-48
2021/06/14 03:29:29;;;;;;;7.50;5.57;;;15.60;99.90;;;;;;4993939;28;20962;-49
2021/06/14 03:31:57;;;;;;;8.10;5.63;;;15.50;99.90;;;;;;4993972;28;20450;-49
2021/06/14 03:34:27;;;;;;;5.83;5.23;;;15.50;99.90;;;;;;4993799;28;20443;-49
2021/06/14 03:36:55;;;;;;;6.37;5.20;;;15.60;99.90;;;;;;4977442;28;20972;-48
2021/06/14 03:39:23;;;;;;;5.73;5.23;;;15.50;99.90;;;;;;4975478;28;20471;-49
2021/06/14 03:41:51;;;;;;;5.77;5.17;;;15.50;99.90;;;;;;4975227;28;20965;-49
2021/06/14 03:44:21;;;;;;;6.87;5.40;;;15.50;99.90;;;;;;4975373;28;21105;-48
2021/06/14 03:46:48;;;;;;;5.60;4.77;;;15.40;99.90;;;;;;4975374;28;20451;-48
2021/06/14 03:49:15;;;;;;;6.00;5.20;;;15.50;99.90;;;;;;4975188;28;20892;-49
2021/06/14 03:51:43;;;;;;;5.43;4.93;;;15.50;99.90;;;;;;4975356;28;20455;-48
2021/06/14 03:54:10;;;;;;;5.60;5.10;;;15.40;99.90;;;;;;4978390;28;20438;-48
2021/06/14 03:56:37;;;;;;;7.10;4.80;;;15.40;99.90;;;;;;4993157;28;20454;-48
2021/06/14 03:59:05;;;;;;;7.63;5.37;;;15.40;99.90;;;;;;4993115;28;20467;-49
2021/06/14 04:01:34;;;;;;;5.93;5.33;;;15.50;99.90;;;;;;4993050;28;20489;-49
2021/06/14 04:06:46;;;;;;;7.00;6.00;;;15.50;99.90;;;;;;4992823;28;20458;-49
2021/06/14 04:09:13;;;;;;;11.77;6.13;;;15.50;99.90;;;;;;4989652;28;20471;-49
2021/06/14 04:11:39;;;;;;;6.53;5.90;;;15.60;99.90;;;;;;4974359;28;20515;-48
2021/06/14 04:14:06;;;;;;;6.23;5.60;;;15.60;99.90;;;;;;4973972;28;20448;-48
2021/06/14 04:16:35;;;;;;;6.00;5.40;;;15.70;99.90;;;;;;4991246;28;20501;-49
2021/06/14 04:19:02;;;;;;;8.10;5.57;;;15.80;99.90;;;;;;4986839;28;20541;-48
2021/06/14 04:21:29;;;;;;;10.10;5.60;;;15.80;99.90;;;;;;4988474;28;20497;-48
2021/06/14 04:23:57;;;;;;;7.53;6.70;;;15.80;99.90;;;;;;4994130;28;20962;-48
2021/06/14 04:26:27;;;;;;;11.57;6.83;;;15.90;99.90;;;;;;4993719;28;20956;-48
2021/06/14 04:28:55;;;;;;;9.43;6.77;;;15.90;99.90;;;;;;4992750;28;20454;-48
2021/06/14 04:31:22;;;;;;;8.13;5.87;;;15.90;99.90;;;;;;4993259;28;20505;-49
2021/06/14 04:33:50;;;;;;;9.33;6.63;;;16.00;99.90;;;;;;4988513;28;20510;-49
2021/06/14 04:36:17;;;;;;;8.27;6.57;;;16.10;99.90;;;;;;4993273;28;20500;-49
2021/06/14 04:38:44;;;;;;;9.20;6.97;;;16.20;99.90;;;;;;4992685;28;20450;-48
2021/06/14 04:41:11;;;;;;;8.00;6.70;;;16.30;99.90;;;;;;4993639;28;20513;-49
2021/06/14 04:43:38;;;;;;;8.00;6.93;;;16.30;99.90;;;;;;4986907;28;20536;-49
2021/06/14 04:46:05;;;;;;;7.43;6.73;;;16.40;99.90;;;;;;4993055;28;20883;-49
2021/06/14 04:48:32;;;;;;;7.23;6.53;;;16.50;99.90;;;;;;4993162;28;20868;-49
2021/06/14 04:51:02;;;;;;;9.60;6.03;;;16.60;99.90;;;;;;4992456;28;20470;-49
2021/06/14 04:53:29;;;;;;;9.07;6.50;;;16.70;99.90;;;;;;4992760;28;20446;-49
2021/06/14 04:55:56;;;;;;;11.60;6.10;;;16.90;99.90;;;;;;4993168;28;20501;-49
2021/06/14 04:58:23;;;;;;;7.83;6.03;;;17.20;99.90;;;;;;4993472;28;20454;-48
2021/06/14 05:00:50;;;;;;;6.30;5.57;;;17.60;99.90;;;;;;4992538;28;20482;-49
2021/06/14 05:03:17;;;;;;;6.10;5.50;;;18.20;99.90;;;;;;4992443;28;20922;-49
2021/06/14 05:05:44;;;;;;;6.30;5.40;;;19.20;99.90;;;;;;4992785;28;20859;-49
2021/06/14 05:08:17;;;;;;;7.83;6.33;;;20.40;99.90;;;;;;4992383;28;20521;-49
2021/06/14 05:10:44;;;;;;;5.30;4.80;;;21.40;99.90;;;;;;4991005;28;20478;-50
2021/06/14 05:13:11;;;;;;;7.07;5.30;;;22.60;99.90;;;;;;4983022;28;20930;-49
2021/06/14 05:15:38;;;;;;;8.20;4.80;;;23.60;99.90;;;;;;4992698;28;20711;-50
2021/06/14 05:18:06;;;;;;;5.47;4.97;;;24.40;99.90;;;;;;4993216;28;20872;-50
2021/06/14 05:20:33;;;;;;;5.07;4.67;;;24.70;99.90;;;;;;4986422;28;20554;-50
2021/06/14 05:23:02;;;;;;;5.03;4.53;;;25.30;99.90;;;;;;4981884;28;20561;-50
2021/06/14 05:25:31;;;;;;;5.50;4.60;;;25.90;99.90;;;;;;4991739;28;20528;-49
2021/06/14 05:27:58;;;;;;;5.53;5.03;;;26.40;99.90;;;;;;4987357;28;20466;-49
2021/06/14 05:30:26;;;;;;;12.27;5.50;;;26.60;98.60;;;;;;4984418;28;21006;-51
2021/06/14 05:32:54;;;;;;;8.20;5.77;;;27.00;98.40;;;;;;4992120;28;20646;-51
2021/06/14 05:35:21;;;;;;;6.33;5.73;;;27.10;97.20;;;;;;4982134;28;20455;-50
2021/06/14 05:37:49;;;;;;;6.60;6.00;;;27.10;96.90;;;;;;4980006;28;20458;-51
2021/06/14 05:40:18;;;;;;;5.63;5.03;;;27.10;97.70;;;;;;4992683;28;20485;-50
2021/06/14 05:42:48;;;;;;;15.93;6.00;;;27.60;96.50;;;;;;4991913;28;20524;-51
2021/06/14 05:45:16;;;;;;;6.93;5.40;;;27.50;95.70;;;;;;4980709;28;20459;-50
2021/06/14 05:47:43;;;;;;;7.20;4.93;;;27.70;96.50;;;;;;4984524;28;20442;-49
2021/06/14 05:50:11;;;;;;;7.80;4.97;;;28.00;96.10;;;;;;4986215;28;20902;-52
2021/06/14 05:52:38;;;;;;;7.70;4.83;;;28.20;94.70;;;;;;4986119;28;20538;-51
2021/06/14 05:55:06;;;;;;;5.67;5.17;;;28.60;95.00;;;;;;4978370;28;20516;-51
2021/06/14 05:57:33;;;;;;;12.17;5.77;;;28.90;94.20;;;;;;4992248;28;20446;-51
2021/06/14 06:00:02;;;;;;;8.43;5.40;;;29.10;93.40;;;;;;4990299;28;20540;-51
2021/06/14 06:02:29;;;;;;;6.10;5.43;;;29.30;93.60;;;;;;4991895;28;20889;-51
2021/06/14 06:04:56;;;;;;;11.63;5.27;;;29.50;93.10;;;;;;4991642;28;20912;-51
2021/06/14 06:07:23;;;;;;;10.07;5.90;;;29.30;92.10;;;;;;4991759;28;20451;-51
2021/06/14 06:09:52;;;;;;;8.70;5.93;;;28.60;92.60;;;;;;4992006;28;20482;-51
2021/06/14 06:12:19;;;;;;;11.53;6.17;;;28.60;92.60;;;;;;4989146;28;20462;-51
2021/06/14 06:14:46;;;;;;;11.73;6.27;;;29.20;91.80;;;;;;4988712;28;20500;-51
2021/06/14 06:17:14;;;;;;;10.07;6.03;;;29.30;91.30;;;;;;4992169;28;20454;-51
2021/06/14 06:19:42;;;;;;;8.50;5.80;;;29.30;91.10;;;;;;4992087;28;20482;-51
2021/06/14 06:22:09;;;;;;;8.83;5.63;;;29.50;91.00;;;;;;4983671;28;20462;-51
2021/06/14 06:24:36;;;;;;;8.87;5.90;;;28.90;92.50;;;;;;4991600;28;21080;-50
2021/06/14 06:27:03;;;;;;;6.03;5.53;;;29.50;90.10;;;;;;4987885;28;21200;-52
2021/06/14 06:29:30;;;;;;;6.60;5.53;;;29.20;92.60;;;;;;4990874;28;20474;-51
2021/06/14 06:31:57;;;;;;;6.60;5.93;;;27.90;92.00;;;;;;4991213;28;20509;-50
2021/06/14 06:34:25;;;;;;;7.80;5.57;;;27.70;93.10;;;;;;4992013;28;20450;-51
2021/06/14 06:36:52;;;;;;;7.73;5.30;;;27.50;92.30;;;;;;4991852;28;20454;-51
2021/06/14 06:39:19;;;;;;;5.70;5.20;;;27.90;92.60;;;;;;4991685;28;20570;-51
2021/06/14 06:41:46;;;;;;;5.80;5.20;;;28.60;91.50;;;;;;4993020;28;20506;-51
2021/06/14 06:44:13;;;;;;;5.20;4.80;;;28.50;92.80;;;;;;4994658;28;20219;-51
2021/06/14 06:46:40;;;;;;;5.60;4.90;;;28.30;91.90;;;;;;4995017;28;20516;-51
2021/06/14 06:49:07;;;;;;;9.53;5.10;;;28.60;90.80;;;;;;4995331;28;20492;-51
2021/06/14 06:51:35;;;;;;;6.20;4.80;;;29.20;90.50;;;;;;4995147;28;20481;-51
2021/06/14 06:54:11;;;;;;;6.10;5.50;;;29.00;90.00;;;;;;4995341;28;20936;-51
2021/06/14 06:56:40;;;;;;;10.13;5.50;;;27.80;91.20;;;;;;4994695;28;20504;-51
2021/06/14 06:59:07;;;;;;;7.43;5.80;;;27.60;92.60;;;;;;4994239;28;21000;-52
2021/06/14 07:01:36;;;;;;;6.50;4.87;;;28.10;91.30;;;;;;4994907;28;20446;-51
2021/06/14 07:04:03;;;;;;;6.47;5.87;;;28.60;90.60;;;;;;4995021;28;20478;-51
2021/06/14 07:06:30;;;;;;;6.17;5.57;;;28.80;90.80;;;;;;4994665;28;20458;-51
2021/06/14 07:08:58;;;;;;;6.00;5.23;;;29.00;90.20;;;;;;4994498;28;20886;-51
2021/06/14 07:11:29;;;;;;;7.10;5.03;;;28.60;90.90;;;;;;4990960;28;20452;-51
2021/06/14 07:13:57;;;;;;;6.10;5.20;;;29.40;90.10;;;;;;4992384;28;20449;-51
2021/06/14 07:16:25;;;;;;;6.37;5.00;;;29.60;88.80;;;;;;4994756;28;20485;-51
2021/06/14 07:18:52;;;;;;;5.50;5.00;;;29.80;86.20;;;;;;4994256;28;20454;-52
2021/06/14 07:21:20;;;;;;;7.17;5.00;;;30.00;84.80;;;;;;4994466;28;20517;-52
2021/06/14 07:23:47;;;;;;;6.43;4.73;;;30.50;85.70;;;;;;4994793;28;20532;-51
2021/06/14 07:26:15;;;;;;;5.97;4.87;;;30.40;84.10;;;;;;4995004;28;20536;-51
2021/06/14 07:28:42;;;;;;;5.33;4.80;;;30.50;84.30;;;;;;4989591;28;20457;-52
2021/06/14 07:31:10;;;;;;;5.50;5.00;;;30.50;89.90;;;;;;4995058;28;20457;-51
2021/06/14 07:33:39;;;;;;;5.20;4.80;;;30.80;83.10;;;;;;4994192;28;20458;-52
2021/06/14 07:36:07;;;;;;;4.90;4.40;;;30.80;82.20;;;;;;4994239;28;20943;-51
2021/06/14 07:38:34;;;;;;;4.80;4.33;;;31.00;84.00;;;;;;4994351;28;20446;-52
2021/06/14 07:41:01;;;;;;;5.13;4.67;;;31.30;83.60;;;;;;4994371;28;20536;-51
2021/06/14 07:43:30;;;;;;;5.30;4.90;;;30.80;83.20;;;;;;4994591;28;20442;-52
2021/06/14 07:45:57;;;;;;;5.30;4.80;;;28.70;90.10;;;;;;4994456;28;20454;-51
2021/06/14 07:48:24;;;;;;;5.10;4.70;;;28.20;90.70;;;;;;4993998;28;20447;-52
2021/06/14 07:50:54;;;;;;;5.30;4.83;;;28.50;87.30;;;;;;4994180;28;20474;-51
2021/06/14 07:53:21;;;;;;;4.70;3.90;;;28.10;90.10;;;;;;4994301;28;20878;-52
2021/06/14 07:55:48;;;;;;;4.63;4.30;;;28.60;86.00;;;;;;4994526;28;20447;-51
2021/06/14 07:58:15;;;;;;;5.00;4.40;;;29.60;82.90;;;;;;4994215;28;20450;-51
2021/06/14 08:00:44;;;;;;;4.93;4.43;;;30.30;81.20;;;;;;5043968;22;20522;-56
2021/06/14 08:03:11;;;;;;;5.47;4.93;;;30.60;80.90;;;;;;5033055;28;20448;-56
2021/06/14 08:05:39;;;;;;;5.30;4.80;;;29.20;90.00;;;;;;5033194;28;20484;-56
2021/06/14 08:08:06;;;;;;;5.17;4.60;;;28.40;90.40;;;;;;5033552;28;20503;-56
2021/06/14 08:10:34;;;;;;;4.47;4.10;;;27.10;93.20;;;;;;5033370;28;20534;-56
2021/06/14 08:13:02;;;;;;;7.03;4.30;;;27.60;92.80;;;;;;5033313;28;20459;-57
2021/06/14 08:15:30;;;;;;;4.97;4.03;;;27.60;93.90;;;;;;5033464;28;20447;-56
2021/06/14 08:18:07;;;;;;;8.23;4.67;;;28.30;91.40;;;;;;5033262;28;20480;-56
2021/06/14 08:20:38;;;;;;;6.07;4.53;;;28.50;91.50;;;;;;5033506;28;20472;-56
2021/06/14 08:25:50;;;;;;;4.93;4.10;;;27.40;94.10;;;;;;5033335;28;21120;-56
2021/06/14 08:28:17;;;;;;;8.27;4.13;;;28.20;92.00;;;;;;5033156;28;20471;-57
2021/06/14 08:30:44;;;;;;;4.73;3.57;;;28.40;90.60;;;;;;5032841;28;20464;-56
2021/06/14 08:33:13;;;;;;;8.80;5.20;;;29.10;91.10;;;;;;5032075;28;20445;-57
2021/06/14 08:35:40;;;;;;;4.37;3.97;;;29.00;91.40;;;;;;5021974;28;20448;-56
2021/06/14 08:38:07;;;;;;;4.90;4.50;;;28.80;93.20;;;;;;5033168;28;20449;-57
2021/06/14 08:40:36;;;;;;;6.37;5.23;;;27.00;94.90;;;;;;5032866;28;20468;-56
2021/06/14 08:43:04;;;;;;;6.50;4.50;;;25.90;95.60;;;;;;5032776;28;20456;-56
2021/06/14 08:45:32;;;;;;;6.67;5.10;;;26.00;96.50;;;;;;5020132;28;20485;-56
2021/06/14 08:48:00;;;;;;;5.67;5.17;;;26.00;97.90;;;;;;5033129;28;20539;-55
2021/06/14 08:50:29;;;;;;;4.70;4.30;;;26.30;95.50;;;;;;5032248;28;21009;-57
2021/06/14 08:52:56;;;;;;;3.97;3.63;;;27.60;91.60;;;;;;5032436;28;20996;-57
2021/06/14 08:55:23;;;;;;;5.20;4.70;;;28.10;91.10;;;;;;5032651;28;20452;-56
2021/06/14 08:57:51;;;;;;;4.07;3.73;;;28.20;93.60;;;;;;5032741;28;20449;-57
2021/06/14 09:00:22;;;;;;;4.93;4.20;;;28.30;93.20;;;;;;5031738;28;20950;-58
2021/06/14 09:02:49;;;;;;;6.07;3.83;;;29.00;89.60;;;;;;5032124;28;20456;-58
2021/06/14 09:05:20;;;;;;;5.97;4.50;;;29.50;91.80;;;;;;5032529;28;20534;-58
2021/06/14 09:07:49;;;;;;;5.93;5.20;;;29.10;90.30;;;;;;5032602;28;20456;-56
2021/06/14 09:10:27;;;;;;;5.70;5.20;;;27.80;93.20;;;;;;5032352;28;20484;-54
2021/06/14 09:12:55;;;;;;;5.47;4.97;;;27.90;93.30;;;;;;5031851;28;20456;-57
2021/06/14 09:15:26;;;;;;;5.60;4.63;;;27.90;93.50;;;;;;5031866;28;20967;-54
2021/06/14 09:17:55;;;;;;;5.87;4.90;;;27.10;94.10;;;;;;5032113;28;20902;-54
2021/06/14 09:20:24;;;;;;;13.03;4.77;;;25.50;95.00;;;;;;5032023;28;20560;-54
2021/06/14 09:22:53;;;;;;;5.20;4.77;;;25.80;97.50;;;;;;5032297;28;20506;-53
2021/06/14 09:25:22;;;;;;;5.50;4.60;;;25.60;97.20;;;;;;5032318;28;20488;-53
2021/06/14 09:27:52;;;;;;;4.67;4.27;;;25.80;95.70;;;;;;5032178;28;20463;-55
2021/06/14 09:30:22;;;;;;;4.43;3.90;;;26.60;96.40;;;;;;5031563;28;20472;-56
2021/06/14 09:32:54;;;;;;;4.10;3.80;;;26.90;94.20;;;;;;5031477;28;20499;-58
2021/06/14 09:35:23;;;;;;;5.13;4.73;;;27.00;93.00;;;;;;5032270;28;20522;-56
2021/06/14 09:37:59;;;;;;;4.50;4.10;;;27.00;92.50;;;;;;5031989;28;21016;-56
2021/06/14 09:40:32;;;;;;;4.53;4.13;;;27.70;93.50;;;;;;5031966;28;20471;-56
2021/06/14 09:43:00;;;;;;;4.23;3.87;;;27.00;93.00;;;;;;5031670;28;20449;-56
2021/06/14 09:45:27;;;;;;;4.40;4.00;;;26.70;93.50;;;;;;5031590;28;20480;-56
2021/06/14 09:47:55;;;;;;;7.73;4.10;;;26.40;92.80;;;;;;5031410;28;20518;-55
2021/06/14 09:50:27;;;;;;;6.10;4.50;;;27.00;94.20;;;;;;5031819;28;20468;-57
2021/06/14 09:53:12;;;;;;;6.53;3.80;;;26.50;94.00;;;;;;5031654;28;20466;-58
2021/06/14 09:55:40;;;;;;;9.93;3.90;;;27.10;92.00;;;;;;5031722;28;20993;-58
2021/06/14 09:58:15;;;;;;;4.07;3.77;;;27.10;92.90;;;;;;5031625;28;20448;-58
2021/06/14 10:00:54;;;;;;;3.37;3.07;;;27.40;92.30;;;;;;5031467;28;20480;-58
2021/06/14 10:03:22;;;;;;;4.27;3.87;;;27.30;92.40;;;;;;5031043;28;20950;-56
2021/06/14 10:05:51;;;;;;;6.20;4.70;;;26.20;93.40;;;;;;5031216;28;20484;-58
2021/06/14 10:08:27;;;;;;;4.10;3.73;;;26.00;92.80;;;;;;5031668;28;20452;-55
2021/06/14 10:11:07;;;;;;;5.10;4.30;;;25.90;93.90;;;;;;5031640;28;20495;-55
2021/06/14 10:13:36;;;;;;;4.60;4.20;;;26.40;96.30;;;;;;5031337;28;20444;-57
2021/06/14 10:16:05;;;;;;;4.37;3.97;;;26.40;95.00;;;;;;5031352;28;21014;-55
2021/06/14 10:18:36;;;;;;;4.40;4.00;;;26.40;93.40;;;;;;5030789;28;21024;-55
2021/06/14 10:21:05;;;;;;;4.50;4.10;;;26.30;93.30;;;;;;5031279;28;20522;-55
2021/06/14 10:23:33;;;;;;;4.30;4.00;;;26.70;94.50;;;;;;5031158;28;20506;-55
2021/06/14 10:26:01;;;;;;;5.70;4.67;;;27.00;93.10;;;;;;5031424;28;20499;-55
2021/06/14 10:28:28;;;;;;;4.33;3.93;;;26.40;93.10;;;;;;5031276;28;20510;-58
2021/06/14 10:30:56;;;;;;;4.60;4.20;;;27.10;95.40;;;;;;5030898;28;20476;-55
2021/06/14 10:33:25;;;;;;;7.33;4.20;;;27.30;94.40;;;;;;5030336;28;20527;-55
2021/06/14 10:35:54;;;;;;;4.20;3.90;;;27.30;92.30;;;;;;5027121;28;20456;-58
2021/06/14 10:38:22;;;;;;;3.93;3.63;;;27.80;91.60;;;;;;5031195;28;20540;-58
2021/06/14 10:40:53;;;;;;;6.53;4.43;;;28.10;94.40;;;;;;5031039;28;20468;-56
2021/06/14 10:43:25;;;;;;;4.07;3.77;;;28.00;94.10;;;;;;5029739;28;20445;-55
2021/06/14 10:45:53;;;;;;;5.20;4.70;;;27.80;93.10;;;;;;5030686;28;21059;-56
2021/06/14 10:48:32;;;;;;;6.13;4.37;;;27.80;93.20;;;;;;5029131;28;20451;-55
2021/06/14 10:51:00;;;;;;;5.20;4.17;;;28.20;92.80;;;;;;5031148;28;20469;-58
2021/06/14 10:53:29;;;;;;;4.30;4.00;;;29.00;94.30;;;;;;5030691;28;20871;-57
2021/06/14 10:56:01;;;;;;;4.60;4.10;;;28.40;92.10;;;;;;5030796;28;20452;-55
2021/06/14 10:58:30;;;;;;;5.23;3.80;;;27.50;95.50;;;;;;5030911;28;20536;-55
2021/06/14 11:01:03;;;;;;;4.53;3.87;;;26.90;94.20;;;;;;5030793;28;20495;-55
2021/06/14 11:03:45;;;;;;;4.07;3.80;;;27.10;93.20;;;;;;5030880;28;20449;-55
2021/06/14 11:06:20;;;;;;;3.70;3.40;;;27.80;93.10;;;;;;5030925;28;21009;-58
2021/06/14 11:09:09;;;;;;;3.67;3.37;;;28.10;93.00;;;;;;5030733;28;20821;-57
2021/06/14 11:11:52;;;;;;;4.97;3.97;;;27.60;92.50;;;;;;5013144;28;20527;-58
2021/06/14 11:14:31;;;;;;;4.53;4.20;;;28.10;93.80;;;;;;5015971;28;20457;-58
2021/06/14 11:17:15;;;;;;;3.97;3.57;;;28.10;94.20;;;;;;5010977;28;20456;-59
2021/06/14 11:19:43;;;;;;;3.90;3.60;;;27.40;93.70;;;;;;5011315;28;20881;-55
2021/06/14 11:22:10;;;;;;;3.83;3.53;;;27.30;95.20;;;;;;5011054;28;20449;-56
2021/06/14 11:24:38;;;;;;;3.80;3.50;;;27.60;94.30;;;;;;5025772;28;20824;-57
2021/06/14 11:27:09;;;;;;;3.77;3.47;;;27.90;93.40;;;;;;5032021;28;20538;-56
2021/06/14 11:29:48;;;;;;;3.70;3.40;;;28.20;93.20;;;;;;5033511;28;21194;-56
2021/06/14 11:32:21;;;;;;;4.20;3.80;;;27.80;95.10;;;;;;5034345;28;20502;-56
2021/06/14 11:34:50;;;;;;;4.07;3.77;;;27.00;95.50;;;;;;5034277;28;20449;-56
2021/06/14 11:37:17;;;;;;;4.73;3.40;;;27.30;92.80;;;;;;5033818;28;20873;-56
2021/06/14 11:39:45;;;;;;;3.70;3.43;;;26.90;92.10;;;;;;5034180;28;20471;-56
2021/06/14 11:42:17;;;;;;;5.37;3.67;;;27.10;94.40;;;;;;5033789;28;20799;-55
2021/06/14 11:44:53;;;;;;;4.30;3.90;;;27.40;92.60;;;;;;5033972;28;20480;-56
2021/06/14 11:47:22;;;;;;;3.87;3.50;;;26.80;94.90;;;;;;5034122;28;20505;-56
2021/06/14 11:49:51;;;;;;;3.93;3.63;;;26.60;93.80;;;;;;5034088;28;20554;-57
2021/06/14 11:52:22;;;;;;;3.73;3.50;;;26.50;94.50;;;;;;5033596;28;20452;-56
2021/06/14 11:54:54;;;;;;;3.93;3.63;;;26.70;94.20;;;;;;5034206;28;20451;-56
2021/06/14 11:57:31;;;;;;;5.23;3.67;;;26.70;93.30;;;;;;5033977;28;20491;-57
2021/06/14 12:00:00;;;;;;;4.00;3.60;;;27.00;96.10;;;;;;5033679;28;20487;-56
2021/06/14 12:02:29;;;;;;;3.77;3.47;;;26.70;93.90;;;;;;5033545;28;20938;-55
2021/06/14 12:04:57;;;;;;;3.63;3.30;;;26.70;94.90;;;;;;5033352;28;20865;-57
2021/06/14 12:07:32;;;;;;;4.60;3.50;;;26.60;94.20;;;;;;5033845;28;20510;-57
2021/06/14 12:10:01;;;;;;;3.73;3.43;;;26.60;92.80;;;;;;5033593;28;20472;-57
2021/06/14 12:12:30;;;;;;;3.80;3.50;;;26.90;95.40;;;;;;5033386;28;20511;-57
2021/06/14 12:14:58;;;;;;;3.80;3.40;;;27.20;92.50;;;;;;5033447;28;20456;-56
2021/06/14 12:17:27;;;;;;;3.90;3.60;;;27.40;92.90;;;;;;5033549;28;20452;-56
2021/06/14 12:19:54;;;;;;;3.10;2.90;;;27.10;92.90;;;;;;5033183;28;20824;-56
2021/06/14 12:22:22;;;;;;;4.20;3.70;;;27.40;92.10;;;;;;5033220;28;20456;-56
2021/06/14 12:24:50;;;;;;;6.87;3.30;;;27.30;93.30;;;;;;5033522;28;20872;-56
2021/06/14 12:27:18;;;;;;;3.83;3.40;;;27.00;94.10;;;;;;5033253;28;20561;-56
2021/06/14 12:29:55;;;;;;;3.90;3.50;;;27.10;94.10;;;;;;5033126;28;20504;-57
2021/06/14 12:32:22;;;;;;;6.37;3.30;;;27.00;95.20;;;;;;5033177;28;20437;-56
2021/06/14 12:34:49;;;;;;;4.30;3.33;;;27.10;91.50;;;;;;5032556;28;20524;-56
2021/06/14 12:37:19;;;;;;;3.37;3.00;;;27.40;93.20;;;;;;5032782;28;20480;-56
2021/06/14 12:39:56;;;;;;;4.40;3.33;;;27.10;92.30;;;;;;5033069;28;20472;-55
2021/06/14 12:42:23;;;;;;;3.60;3.30;;;26.80;93.10;;;;;;5032751;28;20448;-57
2021/06/14 12:44:59;;;;;;;3.10;2.90;;;26.80;93.40;;;;;;5032810;28;20448;-55
2021/06/14 12:47:28;;;;;;;3.87;3.47;;;27.20;95.20;;;;;;5032856;28;20506;-56
2021/06/14 12:49:56;;;;;;;3.20;2.90;;;27.00;93.30;;;;;;5032645;28;20489;-56
2021/06/14 12:52:25;;;;;;;3.37;3.17;;;27.00;92.80;;;;;;5032704;28;20498;-56
2021/06/14 12:54:53;;;;;;;4.17;2.80;;;27.00;90.60;;;;;;5032795;28;20503;-55
2021/06/14 12:57:24;;;;;;;9.27;3.13;;;27.00;91.30;;;;;;5032613;28;21000;-56
2021/06/14 12:59:52;;;;;;;3.00;2.80;;;27.20;91.80;;;;;;5032431;28;20534;-56